首页
METAR-TAF:

METAR-TAF

机场 :

Batajnica, 塞尔维亚

纬度: 44-56-07N, 经度: 020-15-27E, 海拔: 86米

当前天气观测

该预报发布于31分钟前的11:00 UTC
风速2节,风向多变
温度 10°C
湿度 57%
气压 1022 hPa
能見度: 4000
轻雾

METAR: LYBT 261100Z VRB02KT 4000 BR NSC 10/02 Q1022 NOSIG

时间: 12:31 (11:31 UTC)

预报

该预报发布于6小时和31分钟前的05:00 UTC
预报有效从26日的 06点(UTC)到 27日的 06点(UTC)
风速4节,风向
能見度: 3000
轻雾
短暂存在
从 26日的 06点(UTC)到 26日的 08点(UTC)
能見度: 1500
成为
从 26日的 09点(UTC)到 26日的 11点(UTC)
能見度: 6000
成为
从 26日的 20点(UTC)到 26日的 22点(UTC)
能見度: 5000
小雨
短暂存在
从 27日的 00点(UTC)到 27日的 06点(UTC)
能見度: 4000
多云层高于1500英尺
多云层高于3500英尺

TAF: LYBT 260500Z 2606/2706 10004KT 3000 BR NSC TX08/2613Z TNM02/2606Z TEMPO 2606/2608 1500 BECMG 2609/2611 6000 NSW BECMG 2620/2622 5000 -RA TEMPO 2700/2706 4000 RA BKN015 BKN035

超过4000个机场的气象观测和天气预报(METAR&TAF报告)。

可查询的气象台以黄色和红色小点在地图上表示。

将鼠标移到小点上方,可查看气象台名称。

然后点击查看天气观测和预报。

如需切换地图:点击带黑十字的绿色按钮放大地图;点击带横线的绿色按钮缩小地图;或者点击绿色箭头查看邻近地区的地图。


METAR-TAF: